Wenden, Arizona
Current Conditions -  °F | °C
As of 9:15 PM on Thursday 30 Oct 2014 (Local Time) from KBXK Reporting Station
Clear Clear  
Wind Chill: 68°   Ceiling: Unl
Heat Index: 68°   Visibility: 10mi
Dew Point: 39°   Wind: 7mph
Humidity: 35%   Direction: 20°NNE
Pressure: 29.93"   Gusts: NA
Location:  33.82°N, 113.54°W
Report Text: KBXK 310415Z AUTO 02006KT 10SM CLR 20/04 A2993 RMK AO1
Loading
Personal Weather Stations






























Interactive Weather Map
Tropical Storm Tracking
New forecast layout! Learn more

10-Day Weather Forecast

Advertisements
Track Severe Weather on mobile